sensor_id;sensor_type;location;lat;lon;timestamp;temperature;humidity
43541;DHT22;29549;40.386;-3.710;2023-08-06T00:00:22;26.90;31.30
43541;DHT22;29549;40.386;-3.710;2023-08-06T00:10:23;26.70;31.50
43541;DHT22;29549;40.386;-3.710;2023-08-06T00:20:24;26.40;32.10
43541;DHT22;29549;40.386;-3.710;2023-08-06T00:30:24;26.00;32.40
43541;DHT22;29549;40.386;-3.710;2023-08-06T00:40:25;25.60;33.00
43541;DHT22;29549;40.386;-3.710;2023-08-06T00:50:28;25.40;33.40
43541;DHT22;29549;40.386;-3.710;2023-08-06T01:00:29;25.40;33.30
43541;DHT22;29549;40.386;-3.710;2023-08-06T01:20:49;25.40;33.40
43541;DHT22;29549;40.386;-3.710;2023-08-06T01:30:55;25.20;33.80
43541;DHT22;29549;40.386;-3.710;2023-08-06T01:40:55;25.10;33.90
43541;DHT22;29549;40.386;-3.710;2023-08-06T01:50:56;25.00;34.00
43541;DHT22;29549;40.386;-3.710;2023-08-06T02:00:57;25.10;33.10
43541;DHT22;29549;40.386;-3.710;2023-08-06T02:10:58;25.10;32.20
43541;DHT22;29549;40.386;-3.710;2023-08-06T02:21:00;25.20;31.70
43541;DHT22;29549;40.386;-3.710;2023-08-06T02:31:00;25.10;31.50
43541;DHT22;29549;40.386;-3.710;2023-08-06T02:41:04;25.20;30.60
43541;DHT22;29549;40.386;-3.710;2023-08-06T02:51:05;25.10;30.40
43541;DHT22;29549;40.386;-3.710;2023-08-06T03:01:06;25.10;30.10
43541;DHT22;29549;40.386;-3.710;2023-08-06T03:11:07;24.90;30.10
43541;DHT22;29549;40.386;-3.710;2023-08-06T03:21:08;24.80;30.50
43541;DHT22;29549;40.386;-3.710;2023-08-06T03:31:09;24.60;31.00
43541;DHT22;29549;40.386;-3.710;2023-08-06T03:41:10;24.50;31.20
43541;DHT22;29549;40.386;-3.710;2023-08-06T03:51:10;24.40;31.40
43541;DHT22;29549;40.386;-3.710;2023-08-06T04:01:11;24.40;31.50
43541;DHT22;29549;40.386;-3.710;2023-08-06T04:11:12;24.20;31.80
43541;DHT22;29549;40.386;-3.710;2023-08-06T04:21:13;24.10;31.90
43541;DHT22;29549;40.386;-3.710;2023-08-06T04:31:14;23.90;32.30
43541;DHT22;29549;40.386;-3.710;2023-08-06T04:41:16;23.90;33.40
43541;DHT22;29549;40.386;-3.710;2023-08-06T04:51:18;23.80;33.90
43541;DHT22;29549;40.386;-3.710;2023-08-06T05:01:19;23.60;34.60
43541;DHT22;29549;40.386;-3.710;2023-08-06T05:11:20;23.70;34.80
43541;DHT22;29549;40.386;-3.710;2023-08-06T05:21:20;23.50;35.30
43541;DHT22;29549;40.386;-3.710;2023-08-06T05:31:21;23.40;35.80
43541;DHT22;29549;40.386;-3.710;2023-08-06T05:41:22;23.20;36.70
43541;DHT22;29549;40.386;-3.710;2023-08-06T05:51:23;23.20;37.60
43541;DHT22;29549;40.386;-3.710;2023-08-06T06:01:23;23.20;38.40
43541;DHT22;29549;40.386;-3.710;2023-08-06T06:11:24;23.10;39.20
43541;DHT22;29549;40.386;-3.710;2023-08-06T06:21:25;23.10;40.00
43541;DHT22;29549;40.386;-3.710;2023-08-06T06:31:26;23.10;40.30
43541;DHT22;29549;40.386;-3.710;2023-08-06T06:41:26;23.10;41.00
43541;DHT22;29549;40.386;-3.710;2023-08-06T06:51:27;23.50;41.00
43541;DHT22;29549;40.386;-3.710;2023-08-06T07:01:28;24.00;40.40
43541;DHT22;29549;40.386;-3.710;2023-08-06T07:11:29;24.50;39.60
43541;DHT22;29549;40.386;-3.710;2023-08-06T07:21:29;24.70;39.40
43541;DHT22;29549;40.386;-3.710;2023-08-06T07:31:30;25.00;39.10
43541;DHT22;29549;40.386;-3.710;2023-08-06T07:41:31;25.50;38.50
43541;DHT22;29549;40.386;-3.710;2023-08-06T07:51:32;25.80;38.40
43541;DHT22;29549;40.386;-3.710;2023-08-06T08:01:32;26.10;38.00
43541;DHT22;29549;40.386;-3.710;2023-08-06T08:11:33;26.30;37.80
43541;DHT22;29549;40.386;-3.710;2023-08-06T08:21:34;26.50;37.70
43541;DHT22;29549;40.386;-3.710;2023-08-06T08:31:34;26.60;37.70
43541;DHT22;29549;40.386;-3.710;2023-08-06T08:41:39;27.00;37.00
43541;DHT22;29549;40.386;-3.710;2023-08-06T08:51:40;27.30;36.60
43541;DHT22;29549;40.386;-3.710;2023-08-06T09:01:42;27.50;36.40
43541;DHT22;29549;40.386;-3.710;2023-08-06T09:11:44;27.70;35.90
43541;DHT22;29549;40.386;-3.710;2023-08-06T09:21:45;27.70;35.70
43541;DHT22;29549;40.386;-3.710;2023-08-06T09:31:50;27.90;35.20
43541;DHT22;29549;40.386;-3.710;2023-08-06T09:41:58;28.10;34.50
43541;DHT22;29549;40.386;-3.710;2023-08-06T09:51:59;28.30;34.90
43541;DHT22;29549;40.386;-3.710;2023-08-06T10:02:00;28.60;33.70
43541;DHT22;29549;40.386;-3.710;2023-08-06T10:12:03;28.60;33.10
43541;DHT22;29549;40.386;-3.710;2023-08-06T10:22:08;28.90;32.40
43541;DHT22;29549;40.386;-3.710;2023-08-06T10:32:10;29.10;31.10
43541;DHT22;29549;40.386;-3.710;2023-08-06T10:42:28;29.40;30.40
43541;DHT22;29549;40.386;-3.710;2023-08-06T10:52:29;29.40;30.50
43541;DHT22;29549;40.386;-3.710;2023-08-06T11:02:34;29.60;29.70
43541;DHT22;29549;40.386;-3.710;2023-08-06T11:12:35;29.70;29.90
43541;DHT22;29549;40.386;-3.710;2023-08-06T11:22:37;29.70;29.70
43541;DHT22;29549;40.386;-3.710;2023-08-06T11:32:47;29.80;29.60
43541;DHT22;29549;40.386;-3.710;2023-08-06T11:42:48;30.10;29.00
43541;DHT22;29549;40.386;-3.710;2023-08-06T11:52:55;30.30;29.10
43541;DHT22;29549;40.386;-3.710;2023-08-06T12:02:57;30.60;28.70
43541;DHT22;29549;40.386;-3.710;2023-08-06T12:12:58;30.60;28.10
43541;DHT22;29549;40.386;-3.710;2023-08-06T12:22:58;30.90;28.10
43541;DHT22;29549;40.386;-3.710;2023-08-06T12:32:59;31.10;28.00
43541;DHT22;29549;40.386;-3.710;2023-08-06T12:43:00;31.10;27.90
43541;DHT22;29549;40.386;-3.710;2023-08-06T12:53:01;31.60;27.30
43541;DHT22;29549;40.386;-3.710;2023-08-06T13:03:02;31.60;27.00
43541;DHT22;29549;40.386;-3.710;2023-08-06T13:13:03;31.70;27.10
43541;DHT22;29549;40.386;-3.710;2023-08-06T13:23:04;32.00;26.60
43541;DHT22;29549;40.386;-3.710;2023-08-06T13:33:05;32.10;26.50
43541;DHT22;29549;40.386;-3.710;2023-08-06T13:43:06;32.20;26.10
43541;DHT22;29549;40.386;-3.710;2023-08-06T13:53:07;32.40;26.10
43541;DHT22;29549;40.386;-3.710;2023-08-06T14:03:08;32.60;25.90
43541;DHT22;29549;40.386;-3.710;2023-08-06T14:13:09;32.80;25.60
43541;DHT22;29549;40.386;-3.710;2023-08-06T14:23:10;33.20;25.20
43541;DHT22;29549;40.386;-3.710;2023-08-06T14:33:11;33.50;24.80
43541;DHT22;29549;40.386;-3.710;2023-08-06T14:43:12;33.50;24.00
43541;DHT22;29549;40.386;-3.710;2023-08-06T14:53:12;33.50;24.30
43541;DHT22;29549;40.386;-3.710;2023-08-06T15:03:13;33.50;24.10
43541;DHT22;29549;40.386;-3.710;2023-08-06T15:13:14;33.60;24.10
43541;DHT22;29549;40.386;-3.710;2023-08-06T15:23:15;34.00;23.40
43541;DHT22;29549;40.386;-3.710;2023-08-06T15:33:17;34.20;23.00
43541;DHT22;29549;40.386;-3.710;2023-08-06T15:43:18;34.50;22.70
43541;DHT22;29549;40.386;-3.710;2023-08-06T15:53:18;34.50;23.10
43541;DHT22;29549;40.386;-3.710;2023-08-06T16:03:19;34.30;22.20
43541;DHT22;29549;40.386;-3.710;2023-08-06T16:13:20;34.30;22.00
43541;DHT22;29549;40.386;-3.710;2023-08-06T16:23:20;34.20;22.30
43541;DHT22;29549;40.386;-3.710;2023-08-06T16:33:23;34.20;22.50
43541;DHT22;29549;40.386;-3.710;2023-08-06T16:43:24;34.10;22.60
43541;DHT22;29549;40.386;-3.710;2023-08-06T16:53:24;34.20;22.70
43541;DHT22;29549;40.386;-3.710;2023-08-06T17:03:25;34.10;22.80
43541;DHT22;29549;40.386;-3.710;2023-08-06T17:13:26;34.00;22.90
43541;DHT22;29549;40.386;-3.710;2023-08-06T17:23:26;34.10;22.80
43541;DHT22;29549;40.386;-3.710;2023-08-06T17:33:27;34.00;22.70
43541;DHT22;29549;40.386;-3.710;2023-08-06T17:43:28;33.80;22.60
43541;DHT22;29549;40.386;-3.710;2023-08-06T17:53:29;33.70;22.30
43541;DHT22;29549;40.386;-3.710;2023-08-06T18:03:29;33.60;22.30
43541;DHT22;29549;40.386;-3.710;2023-08-06T18:13:30;33.40;21.60
43541;DHT22;29549;40.386;-3.710;2023-08-06T18:23:31;33.30;21.60
43541;DHT22;29549;40.386;-3.710;2023-08-06T18:33:32;33.20;21.20
43541;DHT22;29549;40.386;-3.710;2023-08-06T18:43:32;33.10;21.20
43541;DHT22;29549;40.386;-3.710;2023-08-06T18:53:33;32.90;21.40
43541;DHT22;29549;40.386;-3.710;2023-08-06T19:03:34;32.70;21.30
43541;DHT22;29549;40.386;-3.710;2023-08-06T19:13:35;32.60;21.00
43541;DHT22;29549;40.386;-3.710;2023-08-06T19:23:36;32.50;20.60
43541;DHT22;29549;40.386;-3.710;2023-08-06T19:33:36;32.30;20.60
43541;DHT22;29549;40.386;-3.710;2023-08-06T19:43:37;32.10;20.20
43541;DHT22;29549;40.386;-3.710;2023-08-06T19:53:38;31.90;18.20
43541;DHT22;29549;40.386;-3.710;2023-08-06T20:03:40;31.70;17.20
43541;DHT22;29549;40.386;-3.710;2023-08-06T20:13:43;31.60;16.40
43541;DHT22;29549;40.386;-3.710;2023-08-06T20:23:44;31.40;16.50
43541;DHT22;29549;40.386;-3.710;2023-08-06T20:33:45;31.20;15.90
43541;DHT22;29549;40.386;-3.710;2023-08-06T20:43:46;31.10;14.50
43541;DHT22;29549;40.386;-3.710;2023-08-06T20:53:46;30.80;14.60
43541;DHT22;29549;40.386;-3.710;2023-08-06T21:03:47;30.60;14.10
43541;DHT22;29549;40.386;-3.710;2023-08-06T21:13:48;30.30;14.50
43541;DHT22;29549;40.386;-3.710;2023-08-06T21:23:49;30.10;14.80
43541;DHT22;29549;40.386;-3.710;2023-08-06T21:33:50;29.90;14.90
43541;DHT22;29549;40.386;-3.710;2023-08-06T21:43:50;29.60;15.00
43541;DHT22;29549;40.386;-3.710;2023-08-06T21:53:54;29.50;15.10
43541;DHT22;29549;40.386;-3.710;2023-08-06T22:03:54;29.30;17.10
43541;DHT22;29549;40.386;-3.710;2023-08-06T22:13:56;29.20;20.30
43541;DHT22;29549;40.386;-3.710;2023-08-06T22:23:58;28.90;22.30
43541;DHT22;29549;40.386;-3.710;2023-08-06T22:33:59;28.60;23.60
43541;DHT22;29549;40.386;-3.710;2023-08-06T22:43:59;28.20;24.70
43541;DHT22;29549;40.386;-3.710;2023-08-06T22:54:00;28.00;25.50
43541;DHT22;29549;40.386;-3.710;2023-08-06T23:04:01;27.70;26.30
43541;DHT22;29549;40.386;-3.710;2023-08-06T23:14:01;27.50;27.00
43541;DHT22;29549;40.386;-3.710;2023-08-06T23:24:02;27.20;27.50
43541;DHT22;29549;40.386;-3.710;2023-08-06T23:34:03;27.10;27.80
43541;DHT22;29549;40.386;-3.710;2023-08-06T23:44:06;26.70;28.70
43541;DHT22;29549;40.386;-3.710;2023-08-06T23:54:07;26.50;29.10
